Time;durP1;ratioP1;P1;durP2;ratioP2;P2;SDS_P1;SDS_P2;PMS_P1;PMS_P2;Temp;Humidity;BMP_temperature;BMP_pressure;BME280_temperature;BME280_humidity;BME280_pressure;Samples;Min_cycle;Max_cycle;Signal;HPM_P1;HPM_P2
2022/02/11 00:08:09;;;;;;;2.50;2.27;;;15.70;57.40;;;;;;5055474;28;20455;-85
2022/02/11 00:10:38;;;;;;;2.90;2.30;;;15.70;57.30;;;;;;5089591;28;20495;-85
2022/02/11 00:13:06;;;;;;;4.60;2.07;;;15.70;57.40;;;;;;5116781;28;20440;-85
2022/02/11 00:15:44;;;;;;;2.20;2.00;;;15.60;57.20;;;;;;5115802;28;20459;-86
2022/02/11 00:18:17;;;;;;;3.60;2.07;;;15.70;57.40;;;;;;5119562;28;20423;-86
2022/02/11 00:20:49;;;;;;;2.63;2.00;;;15.60;57.10;;;;;;5119136;27;20464;-86
2022/02/11 00:23:18;;;;;;;6.47;2.27;;;15.60;57.10;;;;;;5115226;28;20530;-83
2022/02/11 00:25:50;;;;;;;4.63;2.43;;;15.60;57.00;;;;;;5120070;28;20460;-84
2022/02/11 00:31:45;;;;;;;5.10;2.03;;;15.60;56.80;;;;;;5111014;28;20485;-84
2022/02/11 00:34:19;;;;;;;4.63;2.00;;;15.60;56.70;;;;;;5124965;28;20470;-85
2022/02/11 00:36:56;;;;;;;2.60;2.07;;;15.50;56.70;;;;;;5125826;27;20465;-86
2022/02/11 01:02:10;;;;;;;3.53;2.13;;;15.50;56.80;;;;;;5131821;28;20462;-84
2022/02/11 01:02:22;;;;;;;2.73;1.90;;;15.40;56.60;;;;;;5130794;28;20472;-85
2022/02/11 01:04:53;;;;;;;3.20;2.30;;;15.30;56.70;;;;;;5119238;28;20475;-85
2022/02/11 01:07:23;;;;;;;3.87;1.97;;;15.40;56.80;;;;;;5112023;28;20512;-85
2022/02/11 01:09:51;;;;;;;4.13;2.20;;;15.40;56.60;;;;;;5111417;28;20447;-85
2022/02/11 01:12:22;;;;;;;2.10;2.00;;;15.40;56.60;;;;;;5121033;28;20478;-84
2022/02/11 01:14:52;;;;;;;3.20;2.10;;;15.40;56.60;;;;;;5130763;28;20458;-84
2022/02/11 01:17:29;;;;;;;2.60;2.20;;;15.30;56.40;;;;;;5130887;28;20528;-84
2022/02/11 01:20:02;;;;;;;4.83;2.10;;;15.30;56.40;;;;;;5132013;28;20428;-84
2022/02/11 01:22:48;;;;;;;2.90;2.03;;;15.30;56.30;;;;;;5131417;28;20465;-84
2022/02/11 01:25:56;;;;;;;3.03;1.87;;;15.30;56.30;;;;;;5130478;28;20448;-85
2022/02/11 01:28:38;;;;;;;4.20;2.13;;;15.30;56.30;;;;;;5122277;28;20470;-85
2022/02/11 01:31:16;;;;;;;4.07;2.07;;;15.20;56.30;;;;;;5117684;28;20473;-85
2022/02/11 01:36:43;;;;;;;2.40;2.10;;;15.20;56.20;;;;;;5117207;28;20440;-85
2022/02/11 01:50:50;;;;;;;4.73;2.60;;;15.10;56.10;;;;;;5099274;28;20463;-84
2022/02/11 01:53:30;;;;;;;3.97;2.27;;;15.00;56.20;;;;;;5105126;28;20436;-84
2022/02/11 01:56:29;;;;;;;6.30;2.70;;;15.10;56.30;;;;;;5118086;28;20459;-84
2022/02/11 02:02:30;;;;;;;3.77;1.90;;;15.10;56.10;;;;;;5117525;28;20481;-84
2022/02/11 02:24:59;;;;;;;2.73;2.13;;;14.90;55.80;;;;;;5104110;28;20833;-85
2022/02/11 02:27:39;;;;;;;3.20;2.17;;;14.90;55.70;;;;;;5106217;28;20478;-85
2022/02/11 02:57:46;;;;;;;4.13;2.30;;;14.70;55.40;;;;;;5111116;28;20436;-85
2022/02/11 03:17:47;;;;;;;4.30;2.50;;;14.60;55.20;;;;;;5120632;28;20530;-85
2022/02/11 03:53:54;;;;;;;6.23;2.30;;;14.60;55.30;;;;;;5087750;28;20432;-85
2022/02/11 04:08:17;;;;;;;3.60;2.50;;;14.70;55.40;;;;;;5120148;28;20450;-85
2022/02/11 04:53:29;;;;;;;2.87;2.07;;;14.50;55.70;;;;;;5117855;28;20436;-85
2022/02/11 04:55:53;;;;;;;2.27;2.07;;;14.50;55.80;;;;;;5117233;28;20548;-85
2022/02/11 05:01:06;;;;;;;2.80;1.80;;;14.50;55.80;;;;;;5117930;28;20444;-84
2022/02/11 05:03:34;;;;;;;6.53;1.97;;;14.50;55.80;;;;;;5117417;28;20471;-85
2022/02/11 05:06:02;;;;;;;4.97;2.50;;;14.50;55.80;;;;;;5117583;28;20447;-84
2022/02/11 05:08:29;;;;;;;5.03;2.27;;;14.50;55.70;;;;;;5116272;28;20452;-85
2022/02/11 05:10:59;;;;;;;4.93;2.10;;;14.50;55.70;;;;;;5117259;28;20470;-84
2022/02/11 05:13:27;;;;;;;2.40;2.00;;;14.50;55.70;;;;;;5118190;28;20473;-84
2022/02/11 05:15:55;;;;;;;2.37;2.17;;;14.50;55.70;;;;;;5117929;28;20485;-84
2022/02/11 05:18:23;;;;;;;3.67;1.80;;;14.50;55.90;;;;;;5117533;28;20489;-84
2022/02/11 05:20:53;;;;;;;3.87;2.20;;;14.60;55.80;;;;;;5117411;28;20457;-84
2022/02/11 05:23:21;;;;;;;4.13;2.17;;;14.60;55.80;;;;;;5116668;28;20503;-84
2022/02/11 05:25:49;;;;;;;2.87;2.00;;;14.60;55.80;;;;;;5116135;28;20487;-84
2022/02/11 05:28:18;;;;;;;3.13;1.90;;;14.60;55.70;;;;;;5117932;28;20456;-84
2022/02/11 05:30:46;;;;;;;5.80;2.10;;;14.60;55.80;;;;;;5116914;28;20449;-84
2022/02/11 05:33:15;;;;;;;2.80;1.97;;;14.60;56.00;;;;;;5117350;28;20944;-84
2022/02/11 05:35:43;;;;;;;4.43;1.70;;;14.60;56.10;;;;;;5117795;28;20447;-84
2022/02/11 05:38:11;;;;;;;2.80;1.93;;;14.70;56.00;;;;;;5116773;28;20491;-84
2022/02/11 05:40:39;;;;;;;6.97;2.57;;;14.60;56.10;;;;;;5117101;28;20439;-84
2022/02/11 05:43:07;;;;;;;3.03;1.63;;;14.70;56.20;;;;;;5115841;28;20505;-84
2022/02/11 05:45:36;;;;;;;3.50;2.10;;;14.70;56.00;;;;;;5116262;28;20452;-84
2022/02/11 05:48:05;;;;;;;3.40;2.07;;;14.70;56.00;;;;;;5116081;28;20443;-84
2022/02/11 05:50:33;;;;;;;2.53;1.83;;;14.70;56.10;;;;;;5115895;28;20451;-84
2022/02/11 05:53:04;;;;;;;2.53;1.70;;;14.70;56.10;;;;;;5117162;28;20421;-84
2022/02/11 05:55:32;;;;;;;3.17;1.90;;;14.80;56.30;;;;;;5117375;28;20448;-84
2022/02/11 05:58:00;;;;;;;2.03;1.70;;;14.70;56.20;;;;;;5116698;28;20452;-84
2022/02/11 06:00:28;;;;;;;7.53;2.10;;;14.70;56.10;;;;;;5117517;28;20923;-84
2022/02/11 06:02:58;;;;;;;6.37;2.20;;;14.70;56.20;;;;;;5117451;28;20464;-84
2022/02/11 06:05:26;;;;;;;2.17;1.90;;;14.70;56.40;;;;;;5117369;28;20493;-84
2022/02/11 06:07:54;;;;;;;3.43;1.83;;;14.80;56.40;;;;;;5117029;28;20428;-84
2022/02/11 06:10:22;;;;;;;3.40;1.60;;;14.80;56.30;;;;;;5117227;28;20440;-84
2022/02/11 06:12:50;;;;;;;2.10;1.80;;;14.80;56.40;;;;;;5117557;28;20825;-85
2022/02/11 06:15:17;;;;;;;2.90;1.77;;;14.80;56.30;;;;;;5115723;28;20475;-84
2022/02/11 06:17:45;;;;;;;3.63;1.73;;;14.80;56.30;;;;;;5116310;28;20825;-84
2022/02/11 06:20:15;;;;;;;2.23;2.00;;;14.80;56.50;;;;;;5116617;28;20488;-84
2022/02/11 06:22:44;;;;;;;2.20;1.60;;;14.80;56.30;;;;;;5120484;28;20475;-84
2022/02/11 06:25:13;;;;;;;4.10;1.83;;;14.80;56.40;;;;;;5120941;28;20460;-84
2022/02/11 06:27:44;;;;;;;2.07;1.70;;;14.80;56.40;;;;;;5121085;28;20443;-84
2022/02/11 06:30:12;;;;;;;1.83;1.60;;;14.80;56.30;;;;;;5121429;28;20463;-84
2022/02/11 06:32:40;;;;;;;2.40;1.57;;;14.80;56.40;;;;;;5120745;28;20501;-84
2022/02/11 06:35:11;;;;;;;2.77;1.87;;;14.80;56.40;;;;;;5112734;28;20463;-84
2022/02/11 06:37:42;;;;;;;1.83;1.33;;;14.80;56.50;;;;;;5120707;28;20446;-84
2022/02/11 06:40:11;;;;;;;3.67;1.60;;;14.80;56.40;;;;;;5120072;28;20450;-84
2022/02/11 06:42:39;;;;;;;2.00;1.77;;;14.90;56.50;;;;;;5119808;28;20506;-84
2022/02/11 06:45:08;;;;;;;2.53;1.70;;;14.80;56.70;;;;;;5120133;28;20455;-84
2022/02/11 06:47:36;;;;;;;4.03;1.80;;;14.80;56.50;;;;;;5119173;28;20553;-84
2022/02/11 06:50:04;;;;;;;3.57;1.77;;;14.80;56.50;;;;;;5120237;28;20915;-85
2022/02/11 06:52:33;;;;;;;3.40;1.63;;;14.80;56.80;;;;;;5119883;28;20534;-84
2022/02/11 06:55:02;;;;;;;2.70;1.80;;;14.80;56.70;;;;;;5120508;28;20504;-84
2022/02/11 06:57:30;;;;;;;2.70;1.80;;;14.80;56.80;;;;;;5118976;28;20481;-84
2022/02/11 06:59:59;;;;;;;4.67;1.60;;;14.90;56.70;;;;;;5118938;28;20439;-84
2022/02/11 07:02:31;;;;;;;3.00;1.60;;;14.90;56.90;;;;;;5119936;28;20434;-84
2022/02/11 07:04:59;;;;;;;3.13;1.90;;;14.90;56.70;;;;;;5118889;28;20468;-84
2022/02/11 07:07:27;;;;;;;2.40;1.83;;;14.90;56.60;;;;;;5120051;28;20439;-84
2022/02/11 07:09:55;;;;;;;3.47;1.60;;;14.90;56.70;;;;;;5119234;28;20451;-84
2022/02/11 07:12:25;;;;;;;1.60;1.50;;;14.90;56.60;;;;;;5119513;28;20447;-84
2022/02/11 07:14:53;;;;;;;2.93;1.67;;;14.90;56.70;;;;;;5245479;22;20491;-83
2022/02/11 07:21:08;;;;;;;3.47;1.67;;;14.90;56.90;;;;;;5019270;28;20407;-83
2022/02/11 07:23:36;;;;;;;2.13;1.63;;;14.80;56.90;;;;;;5023193;28;20503;-83
2022/02/11 07:26:04;;;;;;;4.37;1.67;;;14.90;57.00;;;;;;5024320;28;20540;-82
2022/02/11 07:28:34;;;;;;;4.93;1.87;;;14.90;57.10;;;;;;5024347;28;20451;-82
2022/02/11 07:31:02;;;;;;;1.43;1.33;;;14.90;57.10;;;;;;5025203;28;20429;-82
2022/02/11 07:33:30;;;;;;;2.40;1.57;;;14.90;57.30;;;;;;5024202;28;20456;-82
2022/02/11 07:35:58;;;;;;;2.30;1.53;;;14.90;57.10;;;;;;5024973;28;20495;-83
2022/02/11 07:38:27;;;;;;;1.53;1.30;;;15.00;57.20;;;;;;5024189;28;20463;-83
2022/02/11 07:40:55;;;;;;;2.07;1.50;;;15.00;57.40;;;;;;5023573;28;20445;-83
2022/02/11 07:43:24;;;;;;;2.53;1.50;;;15.00;57.40;;;;;;5023863;28;20522;-83
2022/02/11 07:46:09;;;;;;;2.50;1.47;;;15.10;57.30;;;;;;5023698;28;20471;-83
2022/02/11 07:48:38;;;;;;;6.17;1.80;;;15.10;57.40;;;;;;5023782;28;20432;-83
2022/02/11 07:51:05;;;;;;;2.00;1.40;;;15.20;57.60;;;;;;5019503;28;20912;-82
2022/02/11 07:53:38;;;;;;;1.40;1.30;;;15.20;57.40;;;;;;5016149;28;20432;-83
2022/02/11 07:56:07;;;;;;;1.73;1.33;;;15.20;57.50;;;;;;5015237;28;20512;-83
2022/02/11 07:58:35;;;;;;;1.60;1.50;;;15.30;57.80;;;;;;5015916;28;20475;-83
2022/02/11 08:01:02;;;;;;;3.27;1.83;;;15.30;57.60;;;;;;5015731;28;20460;-83
2022/02/11 08:03:32;;;;;;;4.87;1.90;;;15.30;57.50;;;;;;5015993;28;20477;-82
2022/02/11 08:06:00;;;;;;;3.30;1.40;;;15.30;57.60;;;;;;5016084;28;20526;-82
2022/02/11 08:08:31;;;;;;;1.73;1.30;;;15.40;57.80;;;;;;5016725;28;20444;-82
2022/02/11 08:10:59;;;;;;;3.67;1.90;;;15.40;57.70;;;;;;5016172;28;20452;-82
2022/02/11 08:13:27;;;;;;;3.43;1.50;;;15.50;57.60;;;;;;5016847;28;20483;-83
2022/02/11 08:15:56;;;;;;;2.67;1.37;;;15.50;57.60;;;;;;5017100;28;20464;-82
2022/02/11 08:18:24;;;;;;;3.93;1.77;;;15.50;57.60;;;;;;5017281;28;20491;-83
2022/02/11 08:21:12;;;;;;;1.67;1.57;;;15.50;57.60;;;;;;5017315;28;20440;-83
2022/02/11 08:23:40;;;;;;;1.70;1.50;;;15.50;57.80;;;;;;5018467;28;20472;-81
2022/02/11 08:26:08;;;;;;;2.73;1.43;;;15.50;57.70;;;;;;5023367;28;20432;-82
2022/02/11 08:28:39;;;;;;;1.67;1.53;;;15.60;57.80;;;;;;5015744;28;20439;-82
2022/02/11 08:31:07;;;;;;;3.13;1.43;;;15.60;57.70;;;;;;5000894;28;20448;-82
2022/02/11 08:33:35;;;;;;;6.07;1.70;;;15.70;57.80;;;;;;5000966;28;20437;-82
2022/02/11 08:36:04;;;;;;;2.00;1.80;;;15.70;57.70;;;;;;5001834;28;20504;-82
2022/02/11 08:38:33;;;;;;;4.53;1.80;;;15.70;57.70;;;;;;5001763;28;20459;-82
2022/02/11 08:41:01;;;;;;;1.73;1.63;;;15.70;57.60;;;;;;5003806;28;20469;-82
2022/02/11 08:43:29;;;;;;;2.07;1.50;;;15.70;57.70;;;;;;5011347;28;20445;-82
2022/02/11 08:45:57;;;;;;;1.63;1.40;;;15.70;57.80;;;;;;5026188;28;20479;-83
2022/02/11 08:48:27;;;;;;;2.00;1.20;;;15.70;57.80;;;;;;5025283;28;20448;-82
2022/02/11 08:50:55;;;;;;;3.43;1.63;;;15.80;57.90;;;;;;5025603;28;20448;-83
2022/02/11 08:53:33;;;;;;;1.30;1.20;;;15.90;57.70;;;;;;5024891;28;20435;-82
2022/02/11 08:56:03;;;;;;;5.97;1.80;;;15.90;57.70;;;;;;5026354;28;20475;-82
2022/02/11 08:58:31;;;;;;;3.30;1.50;;;16.00;57.60;;;;;;5024224;28;20487;-82
2022/02/11 09:00:59;;;;;;;1.73;1.27;;;16.10;57.80;;;;;;5025229;28;20425;-82
2022/02/11 09:03:27;;;;;;;1.50;1.30;;;16.10;57.80;;;;;;5024445;28;20445;-83
2022/02/11 09:05:55;;;;;;;1.77;1.60;;;16.20;57.60;;;;;;5024036;28;20448;-82
2022/02/11 09:08:24;;;;;;;2.30;1.47;;;16.20;57.50;;;;;;5023779;28;20436;-83
2022/02/11 09:10:53;;;;;;;4.27;1.33;;;16.20;57.60;;;;;;5022701;28;20443;-83
2022/02/11 09:13:22;;;;;;;2.40;1.27;;;16.30;57.60;;;;;;5021958;28;20448;-83
2022/02/11 09:15:51;;;;;;;1.53;1.43;;;16.30;57.50;;;;;;5022133;28;20488;-81
2022/02/11 09:18:19;;;;;;;1.70;1.30;;;16.30;57.60;;;;;;5022999;28;20429;-83
2022/02/11 09:20:48;;;;;;;3.43;1.70;;;16.30;57.50;;;;;;5023241;28;20441;-83
2022/02/11 09:23:17;;;;;;;1.93;1.13;;;16.30;57.50;;;;;;5023271;28;20471;-83
2022/02/11 09:25:45;;;;;;;2.50;1.40;;;16.40;57.50;;;;;;5022986;28;20476;-83
2022/02/11 09:28:14;;;;;;;4.83;1.23;;;16.40;57.30;;;;;;5023348;28;20471;-84
2022/02/11 09:30:42;;;;;;;2.47;1.43;;;16.50;57.40;;;;;;5021685;28;20444;-83
2022/02/11 09:33:11;;;;;;;2.43;1.30;;;16.50;57.40;;;;;;5022689;28;20456;-83
2022/02/11 09:35:39;;;;;;;2.40;1.43;;;16.60;57.40;;;;;;5021374;28;20464;-81
2022/02/11 09:38:08;;;;;;;2.47;1.30;;;16.70;57.30;;;;;;5015313;28;20528;-84
2022/02/11 09:40:39;;;;;;;1.73;1.40;;;16.70;57.20;;;;;;5022317;28;20456;-83
2022/02/11 09:43:09;;;;;;;1.77;1.30;;;16.70;57.10;;;;;;5022399;28;20448;-82
2022/02/11 09:45:39;;;;;;;2.70;1.20;;;16.70;57.00;;;;;;5022215;28;20480;-83
2022/02/11 09:48:07;;;;;;;1.33;1.20;;;16.70;57.20;;;;;;5021890;28;20428;-83
2022/02/11 09:50:34;;;;;;;1.50;1.40;;;16.70;57.30;;;;;;5021463;28;20568;-83
2022/02/11 09:53:00;;;;;;;2.53;1.17;;;16.70;57.30;;;;;;5022276;28;20444;-83
2022/02/11 09:55:37;;;;;;;1.43;1.33;;;16.70;57.30;;;;;;5021873;28;20451;-83
2022/02/11 09:58:06;;;;;;;1.47;1.37;;;16.70;57.40;;;;;;5022777;28;20502;-83
2022/02/11 10:00:34;;;;;;;1.80;1.70;;;16.60;57.30;;;;;;5022799;28;20433;-83
2022/02/11 10:03:05;;;;;;;2.00;1.40;;;16.60;57.30;;;;;;5022985;28;20555;-83
2022/02/11 10:05:32;;;;;;;4.30;1.10;;;16.60;57.40;;;;;;5022705;28;20555;-83
2022/02/11 10:08:01;;;;;;;2.07;1.27;;;16.60;57.40;;;;;;5021832;28;20456;-83
2022/02/11 10:10:47;;;;;;;1.73;1.20;;;16.60;57.50;;;;;;5023330;28;20433;-84
2022/02/11 10:13:18;;;;;;;1.97;1.23;;;16.50;57.60;;;;;;5023275;28;20519;-84
2022/02/11 10:15:49;;;;;;;3.13;1.40;;;16.50;57.60;;;;;;5023300;28;20461;-81
2022/02/11 10:18:20;;;;;;;3.13;1.33;;;16.50;57.70;;;;;;5023595;28;20448;-83
2022/02/11 10:20:50;;;;;;;3.27;1.20;;;16.60;57.80;;;;;;5024631;28;20440;-82
2022/02/11 10:23:19;;;;;;;2.70;1.40;;;16.50;57.60;;;;;;5023210;28;20444;-83
2022/02/11 10:26:02;;;;;;;2.40;1.20;;;16.60;57.90;;;;;;5023484;28;20476;-84
2022/02/11 10:28:32;;;;;;;1.27;1.17;;;16.60;57.80;;;;;;5024418;28;20440;-84
2022/02/11 10:31:19;;;;;;;1.33;1.10;;;16.70;57.70;;;;;;5023143;28;20432;-83
2022/02/11 10:34:07;;;;;;;2.13;1.30;;;16.60;57.60;;;;;;5022370;28;20494;-83
2022/02/11 10:36:38;;;;;;;1.43;1.20;;;16.60;57.70;;;;;;5023473;28;20432;-83
2022/02/11 10:39:22;;;;;;;2.97;1.20;;;16.60;57.80;;;;;;5023675;28;20432;-85
2022/02/11 10:41:53;;;;;;;2.10;1.60;;;16.60;57.80;;;;;;5021990;28;20491;-83
2022/02/11 10:44:22;;;;;;;1.10;0.93;;;16.70;57.70;;;;;;5022961;28;20528;-83
2022/02/11 10:46:56;;;;;;;2.47;1.27;;;16.70;57.80;;;;;;5022635;28;20454;-83
2022/02/11 10:49:33;;;;;;;2.70;1.37;;;16.70;57.90;;;;;;5022935;28;20451;-83
2022/02/11 10:52:09;;;;;;;3.50;1.20;;;16.80;57.70;;;;;;5024396;28;20459;-84
2022/02/11 10:54:40;;;;;;;1.50;1.40;;;16.80;57.70;;;;;;5024518;28;20487;-83
2022/02/11 10:57:10;;;;;;;1.03;0.90;;;16.80;57.60;;;;;;5023300;28;20453;-83
2022/02/11 10:59:39;;;;;;;3.37;1.30;;;16.80;57.40;;;;;;5024014;28;20451;-84
2022/02/11 11:02:07;;;;;;;3.97;1.60;;;16.80;57.50;;;;;;5022801;28;20437;-83
2022/02/11 11:04:37;;;;;;;2.77;1.50;;;16.80;57.50;;;;;;5023725;28;20472;-84
2022/02/11 11:07:05;;;;;;;2.10;1.03;;;16.80;57.40;;;;;;5023069;28;21002;-84
2022/02/11 11:09:34;;;;;;;3.33;1.30;;;16.80;57.50;;;;;;5023870;28;20463;-84
2022/02/11 11:12:03;;;;;;;4.83;1.40;;;16.80;57.60;;;;;;5025691;28;20463;-83
2022/02/11 11:14:31;;;;;;;1.53;1.33;;;16.80;57.50;;;;;;5026286;28;20484;-84
2022/02/11 11:17:00;;;;;;;3.40;1.10;;;16.80;57.60;;;;;;5024639;28;20443;-84
2022/02/11 11:19:32;;;;;;;6.40;1.47;;;16.80;57.50;;;;;;5029319;28;20471;-82
2022/02/11 11:22:14;;;;;;;3.87;1.50;;;16.80;57.50;;;;;;5026909;28;20432;-83
2022/02/11 11:24:47;;;;;;;3.07;1.43;;;16.80;57.60;;;;;;5027069;28;20527;-83
2022/02/11 11:27:40;;;;;;;1.50;1.23;;;16.70;57.70;;;;;;5027464;28;20443;-83
2022/02/11 11:30:29;;;;;;;2.20;1.27;;;16.80;57.70;;;;;;5024218;28;20448;-83
2022/02/11 11:33:25;;;;;;;2.03;1.07;;;16.70;57.80;;;;;;5025810;28;20429;-84
2022/02/11 11:36:04;;;;;;;2.43;1.30;;;16.80;58.00;;;;;;5024548;28;20479;-83
2022/02/11 11:38:58;;;;;;;3.10;1.17;;;16.70;57.70;;;;;;5026383;28;20475;-84
2022/02/11 11:41:27;;;;;;;3.73;1.60;;;16.70;57.80;;;;;;5017780;28;20931;-84
2022/02/11 11:43:56;;;;;;;2.40;1.57;;;16.70;57.80;;;;;;5019098;28;20460;-84
2022/02/11 11:46:32;;;;;;;3.53;1.13;;;16.70;57.90;;;;;;5026787;28;20483;-84
2022/02/11 11:49:01;;;;;;;2.50;1.30;;;16.70;57.80;;;;;;5025389;28;20816;-85
2022/02/11 11:51:30;;;;;;;1.30;1.10;;;16.70;57.70;;;;;;5020421;28;20453;-85
2022/02/11 11:54:42;;;;;;;2.10;1.40;;;16.70;57.80;;;;;;5009025;28;20476;-86
2022/02/11 11:57:17;;;;;;;1.57;1.20;;;16.70;57.90;;;;;;4991134;28;20445;-86
2022/02/11 11:59:48;;;;;;;3.70;1.17;;;16.70;58.00;;;;;;5001188;28;20433;-85
2022/02/11 12:02:20;;;;;;;1.57;1.10;;;16.80;57.90;;;;;;4998288;28;20473;-86
2022/02/11 12:05:45;;;;;;;6.33;1.30;;;16.90;57.60;;;;;;5006561;28;20469;-87
2022/02/11 12:08:37;;;;;;;1.43;1.10;;;16.90;57.70;;;;;;4999257;28;20441;-86
2022/02/11 12:11:08;;;;;;;3.50;1.60;;;16.90;57.60;;;;;;4995911;28;20461;-83
2022/02/11 12:13:36;;;;;;;2.60;1.30;;;17.00;57.40;;;;;;5004133;28;20461;-84
2022/02/11 12:16:05;;;;;;;6.77;1.50;;;17.00;57.20;;;;;;5007816;28;20461;-83
2022/02/11 12:18:35;;;;;;;1.70;1.17;;;16.90;57.30;;;;;;5010993;28;20514;-85
2022/02/11 12:21:10;;;;;;;3.53;1.57;;;16.90;57.40;;;;;;5008589;28;20444;-84
2022/02/11 12:29:11;;;;;;;3.50;1.20;;;16.90;57.50;;;;;;5009901;28;20452;-87
2022/02/11 12:31:41;;;;;;;2.70;1.37;;;16.90;57.40;;;;;;5023198;28;20447;-85
2022/02/11 12:34:13;;;;;;;2.67;1.10;;;17.00;57.70;;;;;;5028807;28;20504;-84
2022/02/11 12:36:41;;;;;;;5.17;1.50;;;17.00;57.60;;;;;;5015825;28;20449;-84
2022/02/11 12:39:09;;;;;;;4.00;1.50;;;17.10;57.60;;;;;;5009127;28;20460;-84
2022/02/11 12:41:45;;;;;;;3.77;1.43;;;17.20;57.60;;;;;;5005571;28;20470;-85
2022/02/11 12:44:24;;;;;;;2.40;1.00;;;17.40;57.40;;;;;;5007116;28;20461;-84
2022/02/11 12:46:52;;;;;;;2.27;1.50;;;17.50;57.20;;;;;;5011079;28;20564;-84
2022/02/11 12:49:21;;;;;;;1.67;1.43;;;17.70;57.20;;;;;;5002979;28;20453;-87
2022/02/11 12:51:50;;;;;;;1.43;1.27;;;17.80;57.00;;;;;;5007665;28;20513;-85
2022/02/11 12:54:19;;;;;;;1.50;1.40;;;18.00;57.10;;;;;;5008433;28;20463;-85
2022/02/11 12:56:49;;;;;;;1.23;1.10;;;18.40;56.80;;;;;;4997079;28;20445;-84
2022/02/11 12:59:17;;;;;;;2.10;1.30;;;18.90;56.40;;;;;;4996584;28;20515;-84
2022/02/11 13:01:45;;;;;;;2.70;1.17;;;19.20;55.70;;;;;;4998713;28;20432;-84
2022/02/11 13:04:18;;;;;;;2.17;1.30;;;19.70;55.70;;;;;;4992344;28;20508;-85
2022/02/11 13:06:46;;;;;;;2.93;1.40;;;20.20;54.90;;;;;;4980859;28;20501;-87
2022/02/11 13:09:16;;;;;;;2.40;1.40;;;20.80;54.50;;;;;;4995807;28;20416;-85
2022/02/11 13:12:06;;;;;;;2.73;1.27;;;20.90;54.20;;;;;;4998985;28;20479;-86
2022/02/11 13:14:35;;;;;;;3.67;1.40;;;20.90;53.40;;;;;;4998659;28;20461;-86
2022/02/11 13:17:09;;;;;;;8.43;1.40;;;20.70;53.20;;;;;;4995878;28;20469;-86
2022/02/11 13:19:37;;;;;;;2.73;1.27;;;20.50;53.30;;;;;;4996743;28;20495;-86
2022/02/11 13:22:05;;;;;;;2.33;1.20;;;20.20;53.50;;;;;;4996990;28;20449;-86
2022/02/11 13:24:34;;;;;;;3.27;1.40;;;19.90;53.80;;;;;;4996365;28;20535;-86
2022/02/11 13:27:02;;;;;;;2.20;1.60;;;19.70;54.30;;;;;;4996722;28;20452;-86
2022/02/11 13:29:32;;;;;;;2.87;1.43;;;19.50;54.60;;;;;;4999222;28;20445;-86
2022/02/11 13:32:00;;;;;;;1.63;1.27;;;19.30;55.00;;;;;;4998364;28;20960;-86
2022/02/11 13:34:28;;;;;;;2.87;1.43;;;19.10;55.10;;;;;;4997944;28;20457;-86
2022/02/11 13:37:04;;;;;;;3.13;1.37;;;19.00;55.40;;;;;;4999342;28;20449;-85
2022/02/11 13:39:32;;;;;;;4.40;1.50;;;18.90;55.70;;;;;;4999310;28;20433;-85
2022/02/11 13:42:11;;;;;;;2.70;1.53;;;18.80;55.90;;;;;;4997899;28;20453;-85
2022/02/11 13:44:41;;;;;;;7.10;1.70;;;18.80;56.30;;;;;;4996903;28;20460;-85
2022/02/11 13:47:15;;;;;;;3.73;1.70;;;18.90;56.20;;;;;;4996892;28;20473;-85
2022/02/11 13:49:51;;;;;;;2.30;1.50;;;19.10;56.30;;;;;;4993136;28;20476;-83
2022/02/11 13:55:07;;;;;;;4.23;1.73;;;20.50;56.10;;;;;;4989320;28;20445;-85
2022/02/11 13:57:35;;;;;;;3.00;1.80;;;21.10;55.00;;;;;;4986784;28;20423;-85
2022/02/11 14:00:26;;;;;;;4.90;1.90;;;21.60;54.00;;;;;;4987986;28;20463;-85
2022/02/11 14:02:54;;;;;;;2.07;1.73;;;22.00;53.20;;;;;;4988731;28;20408;-85
2022/02/11 14:05:22;;;;;;;1.83;1.63;;;22.40;52.80;;;;;;4994566;28;20467;-84
2022/02/11 14:07:51;;;;;;;4.87;1.77;;;22.70;52.50;;;;;;4992846;28;20451;-85
2022/02/11 14:10:19;;;;;;;3.13;1.87;;;22.90;52.10;;;;;;4992560;28;20451;-85
2022/02/11 14:12:48;;;;;;;2.63;1.60;;;23.00;51.90;;;;;;4992589;28;21009;-84
2022/02/11 14:15:17;;;;;;;2.90;1.97;;;22.90;51.50;;;;;;4995068;28;20552;-84
2022/02/11 14:17:46;;;;;;;2.60;1.67;;;22.70;51.90;;;;;;5005695;28;20486;-83
2022/02/11 14:20:15;;;;;;;3.50;1.70;;;22.60;51.70;;;;;;5003650;28;20416;-83
2022/02/11 14:22:43;;;;;;;2.57;1.80;;;22.30;51.60;;;;;;5003641;28;20938;-84
2022/02/11 14:25:11;;;;;;;5.87;1.80;;;22.20;51.90;;;;;;5000587;28;20467;-84
2022/02/11 14:27:39;;;;;;;3.60;1.90;;;22.10;52.00;;;;;;5008380;28;20477;-85
2022/02/11 14:30:08;;;;;;;2.60;1.63;;;21.90;51.90;;;;;;5009468;28;20492;-85
2022/02/11 14:32:36;;;;;;;2.90;1.70;;;21.80;52.20;;;;;;5009777;28;20939;-85
2022/02/11 14:35:06;;;;;;;3.50;1.90;;;21.60;52.20;;;;;;5009182;28;20424;-85
2022/02/11 14:37:34;;;;;;;4.87;2.00;;;21.30;52.20;;;;;;5009217;28;20426;-87
2022/02/11 14:40:03;;;;;;;5.87;2.30;;;21.10;52.50;;;;;;5005893;28;20484;-86
2022/02/11 14:43:17;;;;;;;2.00;1.80;;;20.80;52.70;;;;;;5008134;28;20471;-85
2022/02/11 14:45:52;;;;;;;4.10;1.70;;;20.70;53.40;;;;;;5001005;28;20508;-85
2022/02/11 14:48:20;;;;;;;3.80;2.27;;;20.40;53.50;;;;;;5010072;28;20500;-85
2022/02/11 14:50:49;;;;;;;5.53;2.23;;;20.30;54.00;;;;;;5001294;28;20488;-83
2022/02/11 14:53:17;;;;;;;5.67;2.67;;;20.10;54.10;;;;;;5012363;28;20441;-84
2022/02/11 14:55:45;;;;;;;2.33;2.13;;;20.00;54.50;;;;;;5012394;28;20472;-83
2022/02/11 14:58:22;;;;;;;3.07;2.07;;;19.90;54.70;;;;;;5011073;28;20441;-83
2022/02/11 15:00:51;;;;;;;4.73;2.27;;;19.70;54.90;;;;;;5007505;28;20461;-83
2022/02/11 15:03:19;;;;;;;3.63;2.00;;;19.60;55.20;;;;;;5006193;28;20527;-86
2022/02/11 15:05:58;;;;;;;4.23;1.87;;;19.50;55.20;;;;;;4996672;28;20496;-86
2022/02/11 15:08:29;;;;;;;3.40;2.03;;;19.30;55.40;;;;;;4995827;28;20471;-86
2022/02/11 15:11:11;;;;;;;4.30;1.90;;;19.20;55.60;;;;;;4999343;28;20527;-84
2022/02/11 15:13:45;;;;;;;8.67;2.63;;;19.10;55.80;;;;;;5002518;28;20424;-85
2022/02/11 15:16:16;;;;;;;3.00;1.73;;;19.00;56.00;;;;;;5001045;28;20480;-85
2022/02/11 15:18:46;;;;;;;4.13;2.37;;;18.90;56.10;;;;;;4999448;28;20445;-85
2022/02/11 15:21:18;;;;;;;2.80;2.20;;;18.80;56.20;;;;;;4995871;28;20424;-86
2022/02/11 15:23:47;;;;;;;3.63;2.40;;;18.80;56.40;;;;;;4998468;28;20469;-86
2022/02/11 15:26:17;;;;;;;7.33;2.33;;;18.70;56.40;;;;;;4995323;28;20501;-86
2022/02/11 15:28:48;;;;;;;6.83;2.33;;;18.60;56.60;;;;;;4998091;28;20472;-85
2022/02/11 15:31:25;;;;;;;5.33;2.27;;;18.60;56.70;;;;;;5002432;28;20464;-85
2022/02/11 15:33:55;;;;;;;5.73;2.50;;;18.60;56.80;;;;;;5001595;28;20445;-84
2022/02/11 15:36:24;;;;;;;2.80;2.10;;;18.50;57.00;;;;;;5000169;28;20511;-85
2022/02/11 15:39:03;;;;;;;4.23;2.20;;;18.50;56.80;;;;;;4994902;28;20441;-85
2022/02/11 15:41:31;;;;;;;3.97;2.20;;;18.50;56.80;;;;;;4996236;28;20404;-85
2022/02/11 15:44:13;;;;;;;5.60;2.67;;;18.50;57.00;;;;;;4996201;28;20461;-85
2022/02/11 15:46:45;;;;;;;7.57;2.37;;;18.40;57.10;;;;;;4996495;28;20461;-86
2022/02/11 15:49:19;;;;;;;5.43;2.30;;;18.30;57.00;;;;;;4993411;28;20472;-85
2022/02/11 15:51:48;;;;;;;4.20;2.27;;;18.30;57.20;;;;;;4994413;28;20453;-86
2022/02/11 15:54:17;;;;;;;3.40;2.20;;;18.30;57.20;;;;;;4995495;28;20465;-86
2022/02/11 15:56:45;;;;;;;4.17;2.43;;;18.20;57.30;;;;;;4995261;28;20540;-85
2022/02/11 15:59:13;;;;;;;4.73;2.50;;;18.20;57.30;;;;;;4994680;28;20476;-83
2022/02/11 16:01:41;;;;;;;5.60;2.50;;;18.20;57.30;;;;;;4995703;28;20445;-83
2022/02/11 16:04:09;;;;;;;4.63;2.20;;;18.10;57.40;;;;;;4982332;28;20475;-82
2022/02/11 16:06:38;;;;;;;3.60;2.33;;;18.10;57.40;;;;;;5000314;28;20445;-81
2022/02/11 16:09:08;;;;;;;3.60;2.60;;;18.00;57.50;;;;;;4998783;28;20469;-80
2022/02/11 16:11:37;;;;;;;2.53;2.23;;;18.00;57.50;;;;;;4995866;28;20734;-81
2022/02/11 16:14:05;;;;;;;3.27;2.20;;;17.90;57.60;;;;;;4999735;28;20459;-81
2022/02/11 16:16:34;;;;;;;4.43;2.53;;;17.90;57.60;;;;;;4999038;28;20484;-81
2022/02/11 16:19:02;;;;;;;6.47;2.70;;;17.80;57.50;;;;;;4998954;28;20445;-80
2022/02/11 16:21:30;;;;;;;7.57;2.70;;;17.80;57.70;;;;;;4999779;28;20600;-81
2022/02/11 16:23:58;;;;;;;5.50;2.63;;;17.70;57.60;;;;;;5000993;28;20433;-81
2022/02/11 16:26:29;;;;;;;5.40;2.43;;;17.60;57.60;;;;;;5001458;28;20506;-82
2022/02/11 16:28:57;;;;;;;4.50;2.03;;;17.70;57.80;;;;;;5002242;28;20976;-82
2022/02/11 16:31:25;;;;;;;3.20;2.47;;;17.60;57.70;;;;;;5005820;28;20429;-83
2022/02/11 16:33:54;;;;;;;3.87;2.00;;;17.50;57.60;;;;;;5001949;28;20977;-81
2022/02/11 16:36:22;;;;;;;5.97;2.67;;;17.60;57.80;;;;;;5003346;28;20445;-82
2022/02/11 16:38:50;;;;;;;4.83;2.33;;;17.50;57.80;;;;;;5003943;28;20469;-82
2022/02/11 16:41:19;;;;;;;3.33;2.53;;;17.40;57.70;;;;;;5004242;28;20433;-83
2022/02/11 16:43:48;;;;;;;4.00;2.43;;;17.40;57.90;;;;;;5004966;28;20464;-82
2022/02/11 16:46:17;;;;;;;3.37;2.37;;;17.40;57.90;;;;;;5002250;28;20433;-82